createdAt,value
2022-10-30T00:00:47.030Z,14.56
2022-10-30T00:03:14.815Z,14.61
2022-10-30T00:05:45.873Z,14.71
2022-10-30T00:08:14.300Z,14.66
2022-10-30T00:10:41.373Z,14.76
2022-10-30T00:13:08.264Z,14.70
2022-10-30T00:15:34.970Z,14.70
2022-10-30T00:18:04.415Z,14.72
2022-10-30T00:20:31.001Z,14.77
2022-10-30T00:22:57.520Z,14.75
2022-10-30T00:25:26.696Z,14.80
2022-10-30T00:27:53.134Z,14.78
2022-10-30T00:30:19.715Z,14.78
2022-10-30T00:32:46.160Z,14.72
2022-10-30T00:35:12.712Z,14.74
2022-10-30T00:37:39.291Z,14.69
2022-10-30T00:40:06.889Z,14.70
2022-10-30T00:42:33.308Z,14.74
2022-10-30T00:44:59.772Z,14.71
2022-10-30T00:47:36.705Z,14.80
2022-10-30T00:50:05.977Z,14.82
2022-10-30T00:52:42.790Z,14.85
2022-10-30T00:55:13.892Z,14.88
2022-10-30T00:57:41.396Z,14.89
2022-10-30T01:00:10.891Z,14.85
2022-10-30T01:02:43.765Z,14.82
2022-10-30T01:05:15.706Z,14.86
2022-10-30T01:07:42.093Z,14.85
2022-10-30T01:10:09.166Z,14.76
2022-10-30T01:12:36.694Z,14.79
2022-10-30T01:15:03.513Z,14.72
2022-10-30T01:17:41.803Z,14.68
2022-10-30T01:20:19.381Z,14.64
2022-10-30T01:22:58.968Z,14.61
2022-10-30T01:25:36.412Z,14.61
2022-10-30T01:28:40.325Z,14.56
2022-10-30T01:31:36.535Z,14.49
2022-10-30T01:34:19.859Z,14.45
2022-10-30T01:36:50.463Z,14.40
2022-10-30T01:39:29.614Z,14.35
2022-10-30T01:41:55.989Z,14.33
2022-10-30T01:44:33.456Z,14.26
2022-10-30T01:47:43.569Z,14.24
2022-10-30T01:50:34.356Z,14.25
2022-10-30T01:53:35.554Z,14.20
2022-10-30T01:56:04.738Z,14.17
2022-10-30T01:58:51.253Z,14.15
2022-10-30T02:01:21.085Z,14.11
2022-10-30T02:03:47.882Z,14.07
2022-10-30T02:06:14.372Z,14.09
2022-10-30T02:08:41.020Z,14.03
2022-10-30T02:11:10.567Z,13.97
2022-10-30T02:13:38.066Z,13.94
2022-10-30T02:16:09.878Z,13.89
2022-10-30T02:18:36.397Z,13.82
2022-10-30T02:21:03.089Z,13.87
2022-10-30T02:23:29.532Z,13.82
2022-10-30T02:25:58.327Z,13.72
2022-10-30T02:28:24.700Z,13.66
2022-10-30T02:30:51.140Z,13.70
2022-10-30T02:33:19.897Z,13.65
2022-10-30T02:35:46.289Z,13.69
2022-10-30T02:38:12.738Z,13.54
2022-10-30T02:40:39.223Z,13.71
2022-10-30T02:43:05.628Z,13.52
2022-10-30T02:45:32.027Z,13.85
2022-10-30T02:48:03.998Z,13.57
2022-10-30T02:50:30.497Z,13.57
2022-10-30T02:52:59.271Z,13.65
2022-10-30T02:55:25.991Z,13.51
2022-10-30T02:57:52.337Z,13.43
2022-10-30T03:00:18.805Z,13.33
2022-10-30T03:02:45.206Z,13.28
2022-10-30T03:05:11.683Z,13.22
2022-10-30T03:07:43.387Z,13.17
2022-10-30T03:10:09.759Z,13.13
2022-10-30T03:12:36.145Z,13.12
2022-10-30T03:15:03.399Z,13.02
2022-10-30T03:17:32.643Z,13.00
2022-10-30T03:19:59.099Z,12.93
2022-10-30T03:22:28.076Z,12.88
2022-10-30T03:24:54.452Z,12.88
2022-10-30T03:27:20.846Z,12.84
2022-10-30T03:29:47.694Z,12.84
2022-10-30T03:32:14.177Z,12.79
2022-10-30T03:34:40.691Z,12.78
2022-10-30T03:37:07.106Z,12.76
2022-10-30T03:39:33.551Z,12.71
2022-10-30T03:41:59.968Z,12.72
2022-10-30T03:44:26.428Z,12.65
2022-10-30T03:46:52.850Z,12.65
2022-10-30T03:49:21.366Z,12.57
2022-10-30T03:51:50.566Z,12.65
2022-10-30T03:54:17.022Z,12.54
2022-10-30T03:56:45.099Z,12.61
2022-10-30T03:59:14.040Z,12.51
2022-10-30T04:01:40.603Z,12.55
2022-10-30T04:04:07.240Z,12.50
2022-10-30T04:06:34.947Z,12.54
2022-10-30T04:09:01.357Z,12.47
2022-10-30T04:11:30.296Z,12.48
2022-10-30T04:13:56.741Z,12.51
2022-10-30T04:16:23.204Z,12.55
2022-10-30T04:18:49.707Z,12.58
2022-10-30T04:21:16.849Z,12.60
2022-10-30T04:23:45.741Z,12.68
2022-10-30T04:26:12.717Z,12.73
2022-10-30T04:28:39.164Z,12.67
2022-10-30T04:31:05.862Z,12.70
2022-10-30T04:33:32.271Z,12.74
2022-10-30T04:36:00.139Z,12.79
2022-10-30T04:38:26.543Z,12.81
2022-10-30T04:40:53.070Z,12.76
2022-10-30T04:43:19.918Z,12.83
2022-10-30T04:45:46.338Z,12.89
2022-10-30T04:48:15.593Z,12.86
2022-10-30T04:50:43.335Z,13.02
2022-10-30T04:53:18.446Z,12.90
2022-10-30T04:55:45.996Z,12.92
2022-10-30T04:58:13.316Z,13.00
2022-10-30T05:00:39.944Z,13.01
2022-10-30T05:03:06.392Z,13.02
2022-10-30T05:05:33.420Z,13.00
2022-10-30T05:08:00.416Z,12.99
2022-10-30T05:10:28.447Z,12.97
2022-10-30T05:12:59.954Z,12.98
2022-10-30T05:15:26.351Z,12.94
2022-10-30T05:17:56.530Z,12.92
2022-10-30T05:20:23.110Z,12.93
2022-10-30T05:23:01.869Z,12.87
2022-10-30T05:25:29.257Z,12.83
2022-10-30T05:28:04.061Z,12.85
2022-10-30T05:30:34.702Z,12.86
2022-10-30T05:33:03.116Z,12.77
2022-10-30T05:35:32.670Z,12.74
2022-10-30T05:38:00.409Z,12.75
2022-10-30T05:40:27.056Z,12.69
2022-10-30T05:42:53.862Z,12.72
2022-10-30T05:45:20.809Z,12.68
2022-10-30T05:48:04.576Z,12.70
2022-10-30T05:50:33.932Z,12.60
2022-10-30T05:53:03.206Z,12.59
2022-10-30T05:55:29.859Z,12.58
2022-10-30T05:58:03.986Z,12.53
2022-10-30T06:00:35.184Z,12.46
2022-10-30T06:03:05.883Z,12.45
2022-10-30T06:05:34.502Z,12.39
2022-10-30T06:08:00.942Z,12.39
2022-10-30T06:10:28.065Z,12.35
2022-10-30T06:12:56.223Z,12.29
2022-10-30T06:15:23.983Z,12.24
2022-10-30T06:17:50.673Z,12.21
2022-10-30T06:20:18.949Z,12.21
2022-10-30T06:22:59.580Z,12.16
2022-10-30T06:25:27.337Z,12.11
2022-10-30T06:27:53.776Z,12.05
2022-10-30T06:30:21.405Z,12.04
2022-10-30T06:32:52.439Z,12.04
2022-10-30T06:35:18.888Z,11.99
2022-10-30T06:37:53.577Z,11.99
2022-10-30T06:40:20.521Z,11.94
2022-10-30T06:42:51.007Z,11.94
2022-10-30T06:45:20.296Z,11.98
2022-10-30T06:47:46.941Z,12.04
2022-10-30T06:50:22.272Z,12.08
2022-10-30T06:52:49.482Z,12.14
2022-10-30T06:55:16.155Z,12.27
2022-10-30T06:57:43.076Z,12.42
2022-10-30T07:00:10.183Z,12.47
2022-10-30T07:02:39.048Z,12.53
2022-10-30T07:05:06.229Z,12.64
2022-10-30T07:07:33.260Z,12.91
2022-10-30T07:10:02.269Z,13.01
2022-10-30T07:12:29.003Z,13.00
2022-10-30T07:14:55.402Z,12.96
2022-10-30T07:17:21.769Z,13.07
2022-10-30T07:19:53.140Z,13.11
2022-10-30T07:22:19.727Z,13.20
2022-10-30T07:24:46.063Z,13.23
2022-10-30T07:27:12.571Z,13.31
2022-10-30T07:29:38.998Z,13.44
2022-10-30T07:32:05.415Z,13.55
2022-10-30T07:34:33.349Z,13.57
2022-10-30T07:36:59.777Z,13.68
2022-10-30T07:39:26.130Z,13.76
2022-10-30T07:41:52.529Z,13.92
2022-10-30T07:44:18.968Z,13.94
2022-10-30T07:46:45.374Z,13.97
2022-10-30T07:49:11.807Z,14.13
2022-10-30T07:51:38.154Z,14.30
2022-10-30T07:54:04.616Z,14.37
2022-10-30T07:56:31.487Z,14.40
2022-10-30T07:59:00.934Z,14.57
2022-10-30T08:01:27.388Z,14.63
2022-10-30T08:03:53.912Z,14.74
2022-10-30T08:06:26.259Z,14.90
2022-10-30T08:08:53.748Z,15.05
2022-10-30T08:11:20.158Z,15.03
2022-10-30T08:13:46.905Z,15.17
2022-10-30T08:16:17.258Z,15.29
2022-10-30T08:18:46.265Z,15.32
2022-10-30T08:21:12.736Z,15.42
2022-10-30T08:23:39.159Z,15.59
2022-10-30T08:26:05.907Z,15.69
2022-10-30T08:28:37.301Z,15.71
2022-10-30T08:31:05.817Z,15.82
2022-10-30T08:33:32.681Z,15.86
2022-10-30T08:36:03.379Z,15.92
2022-10-30T08:38:29.904Z,16.10
2022-10-30T08:40:56.999Z,16.19
2022-10-30T08:43:26.591Z,16.35
2022-10-30T08:45:57.261Z,16.41
2022-10-30T08:48:25.763Z,16.44
2022-10-30T08:50:52.286Z,16.51
2022-10-30T08:53:20.972Z,16.53
2022-10-30T08:55:53.320Z,16.73
2022-10-30T08:58:19.719Z,16.91
2022-10-30T09:00:46.145Z,16.95
2022-10-30T09:03:15.001Z,17.10
2022-10-30T09:05:41.439Z,17.09
2022-10-30T09:08:07.963Z,17.14
2022-10-30T09:10:34.332Z,17.14
2022-10-30T09:13:05.594Z,17.25
2022-10-30T09:15:32.898Z,17.45
2022-10-30T09:18:01.746Z,17.51
2022-10-30T09:20:29.129Z,17.57
2022-10-30T09:22:58.564Z,17.70
2022-10-30T09:25:28.386Z,17.73
2022-10-30T09:27:54.746Z,17.84
2022-10-30T09:30:21.594Z,17.84
2022-10-30T09:33:02.673Z,17.91
2022-10-30T09:35:29.895Z,17.95
2022-10-30T09:37:57.336Z,17.98
2022-10-30T09:40:40.094Z,18.08
2022-10-30T09:43:27.671Z,18.13
2022-10-30T09:46:34.752Z,18.22
2022-10-30T09:49:10.825Z,18.31
2022-10-30T09:52:11.362Z,18.29
2022-10-30T09:54:43.785Z,18.30
2022-10-30T09:57:37.807Z,18.33
2022-10-30T10:00:13.481Z,18.36
2022-10-30T10:03:16.587Z,18.57
2022-10-30T10:05:51.569Z,18.52
2022-10-30T10:08:44.235Z,18.58
2022-10-30T10:11:20.610Z,18.58
2022-10-30T10:14:17.315Z,18.63
2022-10-30T10:16:48.651Z,18.66
2022-10-30T10:19:28.404Z,18.72
2022-10-30T10:22:00.578Z,18.80
2022-10-30T10:24:37.934Z,18.80
2022-10-30T10:27:22.482Z,18.85
2022-10-30T10:30:03.464Z,18.90
2022-10-30T10:32:32.706Z,18.98
2022-10-30T10:35:07.604Z,18.94
2022-10-30T10:38:00.463Z,19.01
2022-10-30T10:40:30.613Z,19.05
2022-10-30T10:43:12.947Z,19.18
2022-10-30T10:45:50.099Z,19.15
2022-10-30T10:48:46.909Z,19.30
2022-10-30T10:51:27.626Z,19.29
2022-10-30T10:54:05.650Z,19.35
2022-10-30T10:56:37.065Z,19.32
2022-10-30T10:59:13.078Z,19.40
2022-10-30T11:01:43.363Z,19.50
2022-10-30T11:04:34.594Z,19.54
2022-10-30T11:07:10.879Z,19.57
2022-10-30T11:09:39.543Z,19.67
2022-10-30T11:12:06.022Z,19.76
2022-10-30T11:14:35.392Z,19.77
2022-10-30T11:17:21.521Z,19.75
2022-10-30T11:19:58.274Z,19.82
2022-10-30T11:22:32.342Z,19.82
2022-10-30T11:25:26.813Z,19.80
2022-10-30T11:28:00.420Z,19.89
2022-10-30T11:30:31.208Z,19.92
2022-10-30T11:32:59.356Z,19.93
2022-10-30T11:35:26.580Z,20.00
2022-10-30T11:38:13.878Z,20.01
2022-10-30T11:40:47.013Z,20.07
2022-10-30T11:43:20.095Z,20.06
2022-10-30T11:45:47.085Z,20.16
2022-10-30T11:48:31.654Z,20.15
2022-10-30T11:51:04.653Z,20.27
2022-10-30T11:53:39.613Z,20.37
2022-10-30T11:56:18.814Z,20.42
2022-10-30T11:58:49.691Z,20.44
2022-10-30T12:01:26.672Z,20.42
2022-10-30T12:03:54.797Z,20.57
2022-10-30T12:06:25.133Z,20.66
2022-10-30T12:08:59.113Z,20.63
2022-10-30T12:11:31.862Z,20.70
2022-10-30T12:14:01.774Z,20.60
2022-10-30T12:16:28.748Z,20.67
2022-10-30T12:19:05.347Z,20.66
2022-10-30T12:21:40.582Z,20.68
2022-10-30T12:24:16.261Z,20.74
2022-10-30T12:26:50.524Z,20.72
2022-10-30T12:29:20.516Z,20.77
2022-10-30T12:31:51.063Z,20.66
2022-10-30T12:34:23.364Z,20.63
2022-10-30T12:37:00.274Z,20.62
2022-10-30T12:39:53.453Z,20.66
2022-10-30T12:42:23.055Z,20.69
2022-10-30T12:45:00.979Z,20.67
2022-10-30T12:47:31.228Z,20.69
2022-10-30T12:52:41.795Z,20.70
2022-10-30T12:55:34.807Z,20.65
2022-10-30T12:58:22.579Z,20.63
2022-10-30T13:01:24.902Z,20.62
2022-10-30T13:03:58.447Z,20.53
2022-10-30T13:06:29.384Z,20.43
2022-10-30T13:09:36.382Z,20.43
2022-10-30T13:12:14.828Z,20.47
2022-10-30T13:14:52.713Z,20.50
2022-10-30T13:17:20.700Z,20.62
2022-10-30T13:19:47.473Z,20.51
2022-10-30T13:22:30.576Z,20.42
2022-10-30T13:25:09.127Z,20.41
2022-10-30T13:27:57.013Z,20.36
2022-10-30T13:30:30.664Z,20.30
2022-10-30T13:33:18.663Z,20.32
2022-10-30T13:36:17.399Z,20.35
2022-10-30T13:39:17.587Z,20.39
2022-10-30T13:41:58.621Z,20.35
2022-10-30T13:44:42.736Z,20.36
2022-10-30T13:47:31.870Z,20.32
2022-10-30T13:50:10.375Z,20.40
2022-10-30T13:52:40.655Z,20.42
2022-10-30T13:55:10.310Z,20.40
2022-10-30T13:57:46.504Z,20.38
2022-10-30T14:00:23.736Z,20.44
2022-10-30T14:03:28.121Z,20.47
2022-10-30T14:06:12.577Z,20.42
2022-10-30T14:08:48.677Z,20.48
2022-10-30T14:11:15.139Z,20.43
2022-10-30T14:13:56.492Z,20.32
2022-10-30T14:16:41.053Z,20.29
2022-10-30T14:19:15.008Z,20.29
2022-10-30T14:21:54.280Z,20.35
2022-10-30T14:24:31.065Z,20.21
2022-10-30T14:27:03.299Z,20.14
2022-10-30T14:29:35.802Z,20.05
2022-10-30T14:32:23.613Z,20.01
2022-10-30T14:34:49.984Z,19.96
2022-10-30T14:37:23.732Z,19.78
2022-10-30T14:39:51.596Z,19.72
2022-10-30T14:42:30.354Z,19.64
2022-10-30T14:44:59.931Z,19.58
2022-10-30T14:47:54.910Z,19.51
2022-10-30T14:50:27.571Z,19.40
2022-10-30T14:53:21.449Z,19.35
2022-10-30T14:56:11.703Z,19.25
2022-10-30T14:58:38.984Z,19.20
2022-10-30T15:01:33.681Z,19.16
2022-10-30T15:04:50.739Z,19.08
2022-10-30T15:07:46.281Z,19.07
2022-10-30T15:10:24.709Z,18.95
2022-10-30T15:13:24.287Z,18.88
2022-10-30T15:16:08.999Z,18.86
2022-10-30T15:18:35.513Z,18.80
2022-10-30T15:21:07.863Z,18.83
2022-10-30T15:23:36.691Z,18.85
2022-10-30T15:26:09.514Z,18.91
2022-10-30T15:28:38.152Z,18.87
2022-10-30T15:31:08.427Z,18.79
2022-10-30T15:33:38.260Z,18.82
2022-10-30T15:36:15.525Z,18.78
2022-10-30T15:38:41.889Z,18.64
2022-10-30T15:41:11.853Z,18.56
2022-10-30T15:43:43.033Z,18.51
2022-10-30T15:46:10.826Z,18.39
2022-10-30T15:48:47.758Z,18.27
2022-10-30T15:51:24.006Z,18.16
2022-10-30T15:53:59.923Z,18.04
2022-10-30T15:56:28.491Z,17.97
2022-10-30T15:59:06.703Z,17.85
2022-10-30T16:01:39.251Z,17.75
2022-10-30T16:04:15.862Z,17.64
2022-10-30T16:06:52.930Z,17.54
2022-10-30T16:09:20.219Z,17.43
2022-10-30T16:11:48.296Z,17.37
2022-10-30T16:14:18.581Z,17.28
2022-10-30T16:16:45.796Z,17.17
2022-10-30T16:19:29.104Z,17.11
2022-10-30T16:22:00.995Z,17.09
2022-10-30T16:24:34.185Z,17.00
2022-10-30T16:27:19.567Z,16.93
2022-10-30T16:29:48.587Z,16.85
2022-10-30T16:32:21.039Z,16.77
2022-10-30T16:34:49.749Z,16.75
2022-10-30T16:37:28.804Z,16.67
2022-10-30T16:40:02.384Z,16.62
2022-10-30T16:42:29.110Z,16.60
2022-10-30T16:45:24.798Z,16.55
2022-10-30T16:48:00.904Z,16.47
2022-10-30T16:50:36.615Z,16.40
2022-10-30T16:53:08.670Z,16.33
2022-10-30T16:55:38.485Z,16.23
2022-10-30T16:58:05.129Z,16.22
2022-10-30T17:00:36.207Z,16.10
2022-10-30T17:03:10.274Z,16.06
2022-10-30T17:05:38.339Z,15.98
2022-10-30T17:08:10.200Z,15.90
2022-10-30T17:10:59.227Z,15.80
2022-10-30T17:13:52.408Z,15.73
2022-10-30T17:16:25.575Z,15.70
2022-10-30T17:18:54.542Z,15.63
2022-10-30T17:21:38.831Z,15.60
2022-10-30T17:24:05.978Z,15.53
2022-10-30T17:26:39.009Z,15.45
2022-10-30T17:29:06.742Z,15.42
2022-10-30T17:31:35.975Z,15.35
2022-10-30T17:34:15.707Z,15.29
2022-10-30T17:36:42.787Z,15.24
2022-10-30T17:39:09.546Z,15.22
2022-10-30T17:41:36.376Z,15.17
2022-10-30T17:44:03.101Z,15.14
2022-10-30T17:46:29.489Z,15.11
2022-10-30T17:48:59.252Z,15.11
2022-10-30T17:51:26.354Z,15.04
2022-10-30T17:53:53.500Z,15.06
2022-10-30T17:56:24.834Z,14.99
2022-10-30T17:58:51.305Z,14.96
2022-10-30T18:01:24.479Z,14.95
2022-10-30T18:03:53.257Z,14.94
2022-10-30T18:06:22.319Z,14.92
2022-10-30T18:08:50.822Z,14.88
2022-10-30T18:11:20.099Z,14.86
2022-10-30T18:13:47.801Z,14.83
2022-10-30T18:16:15.585Z,14.82
2022-10-30T18:18:43.562Z,14.73
2022-10-30T18:21:14.118Z,14.81
2022-10-30T18:23:55.951Z,14.74
2022-10-30T18:26:25.027Z,14.73
2022-10-30T18:28:54.473Z,14.65
2022-10-30T18:31:23.266Z,14.58
2022-10-30T18:33:49.723Z,14.56
2022-10-30T18:36:21.654Z,14.67
2022-10-30T18:38:48.816Z,14.86
2022-10-30T18:41:18.166Z,14.77
2022-10-30T18:43:46.884Z,14.86
2022-10-30T18:46:15.140Z,14.67
2022-10-30T18:48:41.597Z,14.59
2022-10-30T18:51:16.574Z,14.48
2022-10-30T18:53:51.457Z,14.45
2022-10-30T18:56:29.431Z,14.40
2022-10-30T18:59:01.711Z,14.35
2022-10-30T19:01:32.227Z,14.36
2022-10-30T19:04:03.985Z,14.31
2022-10-30T19:06:30.885Z,14.26
2022-10-30T19:08:57.329Z,14.25
2022-10-30T19:11:29.169Z,14.20
2022-10-30T19:13:57.498Z,14.14
2022-10-30T19:16:25.246Z,14.13
2022-10-30T19:18:51.951Z,14.06
2022-10-30T19:21:28.067Z,13.99
2022-10-30T19:23:58.655Z,13.95
2022-10-30T19:26:25.078Z,13.93
2022-10-30T19:28:51.549Z,13.87
2022-10-30T19:31:19.544Z,13.80
2022-10-30T19:33:51.281Z,13.74
2022-10-30T19:36:37.246Z,13.75
2022-10-30T19:39:15.720Z,13.65
2022-10-30T19:41:45.218Z,13.63
2022-10-30T19:44:11.704Z,13.60
2022-10-30T19:46:38.080Z,13.55
2022-10-30T19:49:19.851Z,13.47
2022-10-30T19:51:49.546Z,13.49
2022-10-30T19:54:16.057Z,13.42
2022-10-30T19:56:43.982Z,13.36
2022-10-30T19:59:12.998Z,13.36
2022-10-30T20:01:41.391Z,13.35
2022-10-30T20:04:08.208Z,13.36
2022-10-30T20:06:37.323Z,13.30
2022-10-30T20:09:05.352Z,13.27
2022-10-30T20:11:32.189Z,13.26
2022-10-30T20:13:58.667Z,13.19
2022-10-30T20:16:25.077Z,13.14
2022-10-30T20:18:51.640Z,13.10
2022-10-30T20:21:19.592Z,13.10
2022-10-30T20:23:46.122Z,13.03
2022-10-30T20:26:21.913Z,13.00
2022-10-30T20:28:48.656Z,12.96
2022-10-30T20:31:15.558Z,12.92
2022-10-30T20:33:41.981Z,12.94
2022-10-30T20:36:11.396Z,12.92
2022-10-30T20:38:37.995Z,12.90
2022-10-30T20:41:05.342Z,12.83
2022-10-30T20:43:37.574Z,12.78
2022-10-30T20:46:09.620Z,12.81
2022-10-30T20:48:36.246Z,12.78
2022-10-30T20:51:02.915Z,12.70
2022-10-30T20:53:30.849Z,12.70
2022-10-30T20:55:57.628Z,12.72
2022-10-30T20:58:24.545Z,12.69
2022-10-30T21:00:54.290Z,12.66
2022-10-30T21:03:22.952Z,12.62
2022-10-30T21:05:55.927Z,12.68
2022-10-30T21:08:22.891Z,12.64
2022-10-30T21:10:49.336Z,12.63
2022-10-30T21:13:16.256Z,12.58
2022-10-30T21:15:44.358Z,12.57
2022-10-30T21:18:13.931Z,12.53
2022-10-30T21:20:41.418Z,12.51
2022-10-30T21:23:10.335Z,12.53
2022-10-30T21:25:36.878Z,12.45
2022-10-30T21:28:03.514Z,12.41
2022-10-30T21:30:30.821Z,12.49
2022-10-30T21:32:59.381Z,12.43
2022-10-30T21:35:26.283Z,12.39
2022-10-30T21:37:52.762Z,12.53
2022-10-30T21:40:19.136Z,12.46
2022-10-30T21:42:48.750Z,12.41
2022-10-30T21:45:15.208Z,12.37
2022-10-30T21:47:41.591Z,12.33
2022-10-30T21:50:12.127Z,12.31
2022-10-30T21:52:39.579Z,12.31
2022-10-30T21:55:08.694Z,12.24
2022-10-30T21:57:35.546Z,12.19
2022-10-30T22:00:05.734Z,12.17
2022-10-30T22:02:33.859Z,12.18
2022-10-30T22:05:00.336Z,12.08
2022-10-30T22:07:26.691Z,12.04
2022-10-30T22:09:53.578Z,12.03
2022-10-30T22:12:20.436Z,11.99
2022-10-30T22:14:46.817Z,11.95
2022-10-30T22:17:15.681Z,11.99
2022-10-30T22:19:44.689Z,11.91
2022-10-30T22:22:13.255Z,11.87
2022-10-30T22:24:40.480Z,11.87
2022-10-30T22:27:06.877Z,11.83
2022-10-30T22:29:33.285Z,11.82
2022-10-30T22:32:02.455Z,11.77
2022-10-30T22:34:32.304Z,11.74
2022-10-30T22:37:01.503Z,11.71
2022-10-30T22:39:28.025Z,11.74
2022-10-30T22:41:54.900Z,11.72
2022-10-30T22:44:23.805Z,11.69
2022-10-30T22:46:52.790Z,11.67
2022-10-30T22:49:19.898Z,11.62
2022-10-30T22:51:46.291Z,11.60
2022-10-30T22:54:13.045Z,11.59
2022-10-30T22:56:40.349Z,11.55
2022-10-30T22:59:10.858Z,11.52
2022-10-30T23:01:38.592Z,11.52
2022-10-30T23:04:06.956Z,11.50
2022-10-30T23:06:37.439Z,11.49
2022-10-30T23:09:07.536Z,11.41
2022-10-30T23:11:34.483Z,11.43
2022-10-30T23:14:00.968Z,11.43
2022-10-30T23:16:27.850Z,11.40
2022-10-30T23:18:56.454Z,11.36
2022-10-30T23:21:28.898Z,11.33
2022-10-30T23:23:56.121Z,11.38
2022-10-30T23:26:28.616Z,11.31
2022-10-30T23:28:57.035Z,11.42
2022-10-30T23:31:26.540Z,11.50
2022-10-30T23:33:55.584Z,11.61
2022-10-30T23:36:25.143Z,11.38
2022-10-30T23:38:55.987Z,11.35
2022-10-30T23:41:23.915Z,11.30
2022-10-30T23:43:55.055Z,11.28
2022-10-30T23:46:21.603Z,11.36
2022-10-30T23:48:48.078Z,11.32
2022-10-30T23:51:14.706Z,11.31
2022-10-30T23:53:41.090Z,11.26
2022-10-30T23:56:07.891Z,11.22
2022-10-30T23:58:34.802Z,11.20
